Time;durP1;ratioP1;P1;durP2;ratioP2;P2;SDS_P1;SDS_P2;PMS_P1;PMS_P2;Temp;Humidity;BMP_temperature;BMP_pressure;BME280_temperature;BME280_humidity;BME280_pressure;Samples;Min_cycle;Max_cycle;Signal;HPM_P1;HPM_P2
2022/07/24 00:00:07;;;;;;;8.68;6.13;;;;;;;25.74;44.95;101937.53;5028609;28;20041;-71
2022/07/24 00:02:32;;;;;;;;;;;;;;;25.75;44.59;101937.22;5029255;28;20052;-69
2022/07/24 00:05:00;;;;;;;7.78;6.18;;;;;;;25.59;45.26;101935.03;5032477;28;19917;-70
2022/07/24 00:07:25;;;;;;;9.98;6.85;;;;;;;25.58;44.45;101941.63;5049206;28;20044;-69
2022/07/24 00:09:51;;;;;;;9.40;6.32;;;;;;;25.53;45.09;101939.81;5048763;28;20041;-70
2022/07/24 00:12:16;;;;;;;7.55;6.45;;;;;;;25.55;44.77;101934.78;5043521;28;20030;-70
2022/07/24 00:14:41;;;;;;;6.95;6.25;;;;;;;25.56;45.01;101930.94;5023629;28;20536;-71
2022/07/24 00:17:07;;;;;;;8.25;6.45;;;;;;;25.60;44.87;101925.63;5043690;28;20029;-70
2022/07/24 00:19:32;;;;;;;8.30;6.72;;;;;;;25.70;44.19;101934.56;5048326;28;20032;-70
2022/07/24 00:21:59;;;;;;;8.15;7.00;;;;;;;25.69;44.24;101932.13;5048890;28;20037;-69
2022/07/24 00:24:25;;;;;;;9.98;6.53;;;;;;;25.47;44.65;101929.16;5051320;28;20052;-69
2022/07/24 00:26:50;;;;;;;13.48;8.15;;;;;;;25.57;44.98;101934.50;5047163;28;20461;-70
2022/07/24 00:29:17;;;;;;;8.55;6.70;;;;;;;25.65;44.09;101933.84;5033633;28;20091;-70
2022/07/24 00:31:42;;;;;;;10.30;6.93;;;;;;;25.56;44.75;101930.94;5035692;28;20462;-71
2022/07/24 00:34:08;;;;;;;8.80;6.82;;;;;;;25.52;44.57;101924.38;5032753;28;20028;-70
2022/07/24 00:36:33;;;;;;;9.95;7.20;;;;;;;25.31;45.09;101923.03;5031748;28;20037;-70
2022/07/24 00:38:58;;;;;;;7.97;6.82;;;;;;;25.55;44.81;101931.22;5032174;28;20365;-70
2022/07/24 00:41:24;;;;;;;9.68;6.47;;;;;;;25.54;44.98;101935.09;5032025;28;20096;-69
2022/07/24 00:44:13;;;;;;;10.05;7.00;;;;;;;25.47;44.87;101926.41;5032110;28;20462;-69
2022/07/24 00:46:42;;;;;;;8.77;6.78;;;;;;;25.41;44.42;101922.91;5029299;28;20079;-70
2022/07/24 00:49:10;;;;;;;7.72;6.50;;;;;;;25.33;44.96;101929.06;5052328;28;20025;-70
2022/07/24 00:51:36;;;;;;;10.07;7.32;;;;;;;25.48;44.79;101936.28;5033796;28;20037;-71
2022/07/24 00:54:06;;;;;;;9.63;7.30;;;;;;;25.41;44.63;101927.59;5051796;28;20033;-70
2022/07/24 00:56:32;;;;;;;10.52;6.18;;;;;;;25.34;44.97;101927.91;5051231;28;20099;-70
2022/07/24 00:58:57;;;;;;;9.18;6.95;;;;;;;25.10;45.28;101927.97;5051556;28;20037;-68
2022/07/24 01:01:23;;;;;;;11.57;7.05;;;;;;;24.88;45.69;101929.66;5052157;28;20041;-71
2022/07/24 01:03:48;;;;;;;11.15;7.60;;;;;;;24.97;45.77;101927.88;5048728;28;20044;-70
2022/07/24 01:06:14;;;;;;;10.02;6.50;;;;;;;24.70;46.99;101933.16;5031438;28;20057;-71
2022/07/24 01:08:40;;;;;;;8.75;6.72;;;;;;;24.96;46.30;101927.06;5031348;28;20124;-69
2022/07/24 01:11:06;;;;;;;8.50;6.47;;;;;;;24.89;46.16;101923.88;5031303;28;20041;-69
2022/07/24 01:13:31;;;;;;;8.90;7.15;;;;;;;24.80;46.49;101920.13;5031133;28;20060;-71
2022/07/24 01:15:58;;;;;;;11.52;6.45;;;;;;;24.72;46.76;101917.19;5031505;28;20037;-70
2022/07/24 01:18:23;;;;;;;10.40;7.57;;;;;;;24.83;46.22;101914.03;5031015;28;20065;-70
2022/07/24 01:20:49;;;;;;;11.45;7.68;;;;;;;24.74;46.66;101912.25;5031550;28;20100;-69
2022/07/24 01:23:16;;;;;;;8.00;6.57;;;;;;;24.86;46.13;101913.47;5031127;28;20052;-70
2022/07/24 01:25:42;;;;;;;7.78;7.03;;;;;;;24.83;45.97;101910.47;5031087;28;20049;-68
2022/07/24 01:28:08;;;;;;;11.98;6.93;;;;;;;24.86;45.80;101910.72;5031369;28;20076;-70
2022/07/24 01:30:33;;;;;;;9.70;7.10;;;;;;;25.02;45.42;101908.59;5030844;28;20045;-72
2022/07/24 01:32:59;;;;;;;7.72;6.63;;;;;;;24.88;45.58;101907.66;5031102;28;20444;-71
2022/07/24 01:35:24;;;;;;;8.73;6.78;;;;;;;24.91;45.86;101899.63;5029714;28;20132;-71
2022/07/24 01:37:52;;;;;;;9.52;7.05;;;;;;;24.93;45.83;101905.66;5031110;28;20061;-71
2022/07/24 01:40:19;;;;;;;8.18;7.22;;;;;;;24.82;46.11;101900.59;5031749;28;20056;-72
2022/07/24 01:42:44;;;;;;;8.15;6.70;;;;;;;24.77;46.16;101904.22;5030597;28;20049;-72
2022/07/24 01:45:09;;;;;;;7.30;6.13;;;;;;;24.86;45.75;101901.63;5030656;28;20040;-71
2022/07/24 01:47:35;;;;;;;13.50;6.15;;;;;;;24.72;46.40;101903.44;5030760;28;20049;-71
2022/07/24 01:50:03;;;;;;;8.13;6.53;;;;;;;24.84;45.76;101901.94;5030715;28;20499;-70
2022/07/24 01:52:28;;;;;;;11.00;6.38;;;;;;;24.71;46.63;101901.78;5030796;28;20033;-70
2022/07/24 01:54:54;;;;;;;15.80;8.07;;;;;;;24.74;45.88;101899.31;5031271;28;20045;-71
2022/07/24 01:57:19;;;;;;;8.02;6.30;;;;;;;24.86;45.52;101896.97;5030151;28;20509;-70
2022/07/24 01:59:45;;;;;;;8.85;6.32;;;;;;;24.77;45.99;101898.72;5011645;28;20087;-69
2022/07/24 02:02:11;;;;;;;8.32;6.25;;;;;;;24.85;46.50;101886.25;5029705;28;20034;-70
2022/07/24 02:04:36;;;;;;;6.68;5.95;;;;;;;24.82;45.70;101886.84;5029198;28;20466;-69
2022/07/24 02:07:02;;;;;;;6.15;5.53;;;;;;;24.84;45.98;101890.94;5029939;28;20025;-70
2022/07/24 02:09:27;;;;;;;11.50;6.35;;;;;;;24.79;46.30;101891.00;5011378;28;20095;-71
2022/07/24 02:11:53;;;;;;;7.15;6.13;;;;;;;24.83;46.05;101886.53;5029188;28;20095;-70
2022/07/24 02:14:18;;;;;;;9.07;7.22;;;;;;;24.84;46.27;101877.19;5029384;28;20406;-71
2022/07/24 02:16:45;;;;;;;7.20;6.50;;;;;;;25.08;45.36;101877.94;5029201;28;20394;-70
2022/07/24 02:19:10;;;;;;;9.10;6.90;;;;;;;25.18;44.93;101874.22;5029727;28;20172;-69
2022/07/24 02:21:36;;;;;;;9.02;6.20;;;;;;;25.17;44.80;101869.84;5029264;28;20149;-69
2022/07/24 02:24:03;;;;;;;9.02;6.18;;;;;;;25.16;44.95;101874.53;5029042;28;20048;-69
2022/07/24 02:26:28;;;;;;;9.18;6.20;;;;;;;25.13;44.69;101866.88;5030055;28;20065;-71
2022/07/24 02:28:54;;;;;;;9.45;6.35;;;;;;;25.04;44.86;101865.09;5012159;28;20044;-70
2022/07/24 02:31:19;;;;;;;8.15;6.60;;;;;;;25.03;44.95;101861.53;5030766;28;20048;-72
2022/07/24 02:33:45;;;;;;;12.48;7.38;;;;;;;25.01;45.51;101866.50;5029807;28;20557;-71
2022/07/24 02:36:10;;;;;;;8.15;6.53;;;;;;;24.99;45.04;101865.97;5030089;28;20041;-69
2022/07/24 02:38:36;;;;;;;9.20;6.75;;;;;;;24.96;45.32;101876.75;5029580;28;20045;-69
2022/07/24 02:41:01;;;;;;;11.07;7.13;;;;;;;24.97;45.57;101872.88;5029609;28;20037;-71
2022/07/24 02:43:27;;;;;;;8.30;6.75;;;;;;;24.70;46.16;101886.41;5030130;28;20516;-71
2022/07/24 02:45:52;;;;;;;13.90;7.25;;;;;;;24.62;46.65;101878.81;5028983;28;20095;-68
2022/07/24 02:48:17;;;;;;;7.28;6.53;;;;;;;24.45;46.88;101875.72;5029766;28;20022;-70
2022/07/24 02:50:43;;;;;;;9.20;6.97;;;;;;;24.58;46.56;101877.75;5029499;28;20132;-72
2022/07/24 02:53:08;;;;;;;9.02;7.00;;;;;;;24.62;46.57;101867.81;5029383;28;20092;-71
2022/07/24 02:55:34;;;;;;;8.68;7.05;;;;;;;24.56;47.04;101869.81;5029492;28;20029;-69
2022/07/24 02:57:59;;;;;;;12.10;7.18;;;;;;;24.70;46.52;101859.75;5029926;28;20509;-69
2022/07/24 03:00:25;;;;;;;8.18;7.10;;;;;;;24.79;46.12;101858.00;5029225;28;20042;-70
2022/07/24 03:02:50;;;;;;;7.55;6.57;;;;;;;24.81;45.91;101860.44;5029587;28;20034;-70
2022/07/24 03:05:15;;;;;;;8.43;6.65;;;;;;;24.82;46.21;101857.41;5029355;28;20041;-71
2022/07/24 03:07:41;;;;;;;8.43;7.00;;;;;;;24.72;46.48;101849.31;5029126;28;20041;-70
2022/07/24 03:10:09;;;;;;;11.75;6.95;;;;;;;24.79;46.09;101852.50;5029835;28;20025;-69
2022/07/24 03:12:34;;;;;;;8.07;7.28;;;;;;;24.68;46.66;101847.41;5029063;28;20176;-70
2022/07/24 03:15:02;;;;;;;9.43;7.47;;;;;;;24.75;46.29;101850.63;5029378;28;20128;-71
2022/07/24 03:17:27;;;;;;;17.38;7.38;;;;;;;24.74;46.35;101851.75;5047071;28;20040;-69
2022/07/24 03:19:52;;;;;;;9.10;7.55;;;;;;;24.72;46.57;101846.56;5037388;28;20497;-69
2022/07/24 03:22:18;;;;;;;14.55;7.25;;;;;;;24.68;46.26;101847.41;5030001;28;20092;-68
2022/07/24 03:24:43;;;;;;;13.10;7.18;;;;;;;24.68;46.23;101844.66;5028630;28;20506;-69
2022/07/24 03:27:09;;;;;;;7.97;7.18;;;;;;;24.75;46.15;101837.69;5029013;28;20045;-71
2022/07/24 03:29:35;;;;;;;11.38;7.13;;;;;;;24.61;46.30;101841.44;5033297;28;20040;-72
2022/07/24 03:32:00;;;;;;;8.35;7.53;;;;;;;24.35;47.02;101840.94;5048824;28;20037;-71
2022/07/24 03:34:25;;;;;;;8.43;7.55;;;;;;;24.55;46.44;101832.44;5049244;28;20140;-71
2022/07/24 03:36:51;;;;;;;11.63;7.50;;;;;;;24.47;46.91;101841.31;5048957;28;20052;-71
2022/07/24 03:39:17;;;;;;;8.77;6.80;;;;;;;24.58;46.35;101836.53;5030393;28;20073;-69
2022/07/24 03:41:42;;;;;;;12.15;7.95;;;;;;;24.64;46.63;101830.69;5048384;28;20102;-70
2022/07/24 03:44:08;;;;;;;12.57;8.40;;;;;;;24.59;46.41;101835.44;5048431;28;20142;-69
2022/07/24 03:46:33;;;;;;;9.23;7.32;;;;;;;24.67;46.12;101824.56;5048255;28;20143;-70
2022/07/24 03:48:58;;;;;;;14.70;8.25;;;;;;;24.60;46.45;101826.06;5048888;28;20110;-70
2022/07/24 03:51:24;;;;;;;9.75;7.72;;;;;;;24.58;45.79;101833.78;5048525;28;20118;-72
2022/07/24 03:53:49;;;;;;;10.50;7.97;;;;;;;24.64;46.04;101825.19;5049025;28;20501;-70
2022/07/24 03:56:15;;;;;;;9.43;8.43;;;;;;;24.43;46.65;101826.56;5048530;28;20052;-70
2022/07/24 03:58:41;;;;;;;10.65;7.70;;;;;;;24.49;46.24;101821.81;5050422;28;20116;-70
2022/07/24 04:01:07;;;;;;;11.13;7.82;;;;;;;24.42;46.80;101827.66;5048970;28;20028;-71
2022/07/24 04:03:32;;;;;;;8.85;7.95;;;;;;;24.33;46.89;101824.72;5032288;28;20041;-71
2022/07/24 04:06:00;;;;;;;11.77;7.70;;;;;;;24.31;46.72;101826.94;5032632;28;20044;-70
2022/07/24 04:08:25;;;;;;;11.80;8.07;;;;;;;24.36;46.87;101831.56;5032452;28;20034;-71
2022/07/24 04:10:56;;;;;;;8.85;7.35;;;;;;;24.55;46.07;101834.38;5032853;28;20108;-70
2022/07/24 04:13:25;;;;;;;9.73;7.88;;;;;;;24.51;46.43;101844.31;5032927;28;20033;-71
2022/07/24 04:15:51;;;;;;;8.18;7.22;;;;;;;24.50;46.04;101838.00;5032929;28;20045;-71
2022/07/24 04:18:16;;;;;;;8.75;7.82;;;;;;;24.57;45.74;101843.16;5014573;28;20034;-70
2022/07/24 04:20:42;;;;;;;12.57;7.45;;;;;;;24.43;46.67;101849.34;5031988;28;20061;-71
2022/07/24 04:23:07;;;;;;;14.07;8.40;;;;;;;24.02;48.37;101856.41;5032006;28;20025;-69
2022/07/24 04:25:34;;;;;;;11.18;9.00;;;;;;;24.25;47.80;101852.06;5032432;28;20425;-71
2022/07/24 04:28:02;;;;;;;9.98;8.18;;;;;;;24.32;47.90;101853.34;5032715;28;20037;-70
2022/07/24 04:30:28;;;;;;;10.32;9.25;;;;;;;24.28;48.08;101854.19;5013434;28;20494;-68
2022/07/24 04:32:53;;;;;;;15.57;9.10;;;;;;;24.23;48.26;101855.09;5032235;28;20166;-70
2022/07/24 04:35:19;;;;;;;11.70;8.98;;;;;;;24.08;48.28;101849.75;5032322;28;20052;-70
2022/07/24 04:37:45;;;;;;;10.63;8.68;;;;;;;24.25;47.61;101849.31;5031508;28;20029;-71
2022/07/24 04:40:12;;;;;;;11.55;9.80;;;;;;;24.24;47.68;101842.97;5032536;28;20104;-70
2022/07/24 04:42:38;;;;;;;13.80;9.00;;;;;;;24.22;47.77;101839.69;5031821;28;20037;-72
2022/07/24 04:45:05;;;;;;;13.32;9.32;;;;;;;24.15;48.51;101830.19;5013835;28;20060;-71
2022/07/24 04:47:30;;;;;;;11.15;9.25;;;;;;;24.29;47.72;101834.66;5031653;28;20041;-71
2022/07/24 04:49:56;;;;;;;11.27;8.80;;;;;;;24.24;47.83;101842.16;5031903;28;20045;-71
2022/07/24 04:52:21;;;;;;;10.35;8.80;;;;;;;24.27;48.13;101845.13;5032708;28;20458;-69
2022/07/24 04:54:47;;;;;;;11.20;9.13;;;;;;;24.20;47.75;101835.59;5031881;28;20390;-70
2022/07/24 04:57:12;;;;;;;12.07;9.23;;;;;;;24.42;48.05;101849.63;5031420;28;20074;-72
2022/07/24 04:59:37;;;;;;;11.20;9.32;;;;;;;24.36;47.83;101839.81;5031344;28;20042;-70
2022/07/24 05:02:03;;;;;;;16.05;9.73;;;;;;;24.55;47.73;101835.19;5031488;28;20042;-71
2022/07/24 05:04:28;;;;;;;12.82;9.20;;;;;;;24.55;47.79;101832.44;5031969;28;20040;-71
2022/07/24 05:06:54;;;;;;;13.95;9.60;;;;;;;24.60;48.04;101837.88;5031402;28;20095;-69
2022/07/24 05:09:19;;;;;;;12.70;10.48;;;;;;;24.56;47.94;101838.75;5031450;28;20092;-70
2022/07/24 05:11:45;;;;;;;10.75;9.65;;;;;;;24.67;47.28;101835.56;5031080;28;20025;-71
2022/07/24 05:14:10;;;;;;;10.68;9.32;;;;;;;24.75;47.16;101836.88;5031536;28;20044;-70
2022/07/24 05:16:36;;;;;;;12.85;9.52;;;;;;;24.70;47.22;101839.69;5013037;28;20469;-69
2022/07/24 05:19:01;;;;;;;12.30;9.63;;;;;;;24.67;47.94;101832.81;5031614;28;20048;-71
2022/07/24 05:21:26;;;;;;;13.93;10.88;;;;;;;24.79;47.52;101832.41;5031551;28;20048;-71
2022/07/24 05:23:52;;;;;;;16.67;9.80;;;;;;;24.66;47.39;101833.97;5030946;28;20046;-72
2022/07/24 05:26:17;;;;;;;11.40;9.90;;;;;;;24.82;47.02;101831.84;5031658;28;20060;-71
2022/07/24 05:28:43;;;;;;;12.93;10.75;;;;;;;24.85;46.87;101832.06;5031109;28;20032;-71
2022/07/24 05:31:08;;;;;;;18.05;10.68;;;;;;;24.93;46.64;101830.59;5031214;28;20027;-70
2022/07/24 05:33:34;;;;;;;11.80;10.57;;;;;;;24.88;47.09;101833.41;5031030;28;20029;-71
2022/07/24 05:35:59;;;;;;;11.80;10.02;;;;;;;25.05;46.62;101826.28;5013214;28;20049;-71
2022/07/24 05:38:25;;;;;;;16.80;11.23;;;;;;;24.98;46.30;101828.56;5030688;28;20037;-70
2022/07/24 05:40:50;;;;;;;15.32;11.52;;;;;;;24.99;46.94;101824.72;5031234;28;20037;-70
2022/07/24 05:43:16;;;;;;;20.45;12.05;;;;;;;24.99;47.09;101840.41;5031404;28;20030;-71
2022/07/24 05:45:42;;;;;;;16.15;11.07;;;;;;;25.02;46.92;101832.34;5030563;28;20037;-71
2022/07/24 05:48:07;;;;;;;13.98;10.75;;;;;;;24.91;47.40;101835.56;5030666;28;20116;-69
2022/07/24 05:50:33;;;;;;;16.00;11.63;;;;;;;24.84;47.83;101827.69;5012846;28;20049;-70
2022/07/24 05:52:58;;;;;;;18.10;12.45;;;;;;;25.22;46.73;101829.31;5030231;28;20449;-71
2022/07/24 05:55:23;;;;;;;14.70;10.93;;;;;;;25.20;46.97;101836.22;5031110;28;20048;-69
2022/07/24 05:57:49;;;;;;;19.02;12.10;;;;;;;25.25;46.52;101830.66;5030688;28;20033;-73
2022/07/24 06:00:18;;;;;;;16.15;11.82;;;;;;;25.41;46.49;101834.00;5030036;28;20038;-72
2022/07/24 06:02:45;;;;;;;18.23;12.27;;;;;;;25.38;46.92;101834.56;5027897;28;20037;-71
2022/07/24 06:05:11;;;;;;;17.60;11.88;;;;;;;25.24;47.71;101838.09;5008977;28;20029;-70
2022/07/24 06:07:36;;;;;;;15.88;12.48;;;;;;;25.43;47.03;101827.09;5030072;28;20502;-70
2022/07/24 06:10:02;;;;;;;16.60;12.50;;;;;;;25.43;47.04;101826.28;5012660;28;20052;-71
2022/07/24 06:12:28;;;;;;;16.10;12.15;;;;;;;25.55;46.72;101832.91;5028750;28;20083;-68
2022/07/24 06:14:53;;;;;;;16.40;11.23;;;;;;;25.54;46.85;101827.72;5029347;28;20041;-67
2022/07/24 06:17:18;;;;;;;17.55;12.27;;;;;;;25.69;46.48;101831.03;5029731;28;20529;-67
2022/07/24 06:19:44;;;;;;;15.82;12.10;;;;;;;25.82;45.89;101835.78;5028983;28;20026;-67
2022/07/24 06:22:09;;;;;;;20.20;12.98;;;;;;;25.90;45.86;101832.31;5029300;28;20482;-68
2022/07/24 06:24:35;;;;;;;19.02;12.60;;;;;;;26.00;45.60;101831.31;5010684;28;20047;-68
2022/07/24 06:27:00;;;;;;;15.75;12.25;;;;;;;26.13;45.23;101835.22;5011577;28;20136;-67
2022/07/24 06:29:25;;;;;;;21.65;12.02;;;;;;;26.14;45.43;101837.69;5028599;28;20405;-66
2022/07/24 06:31:51;;;;;;;20.95;13.00;;;;;;;26.22;45.48;101836.97;5027752;28;20056;-67
2022/07/24 06:34:16;;;;;;;17.88;11.63;;;;;;;26.26;45.41;101837.97;5027173;28;20041;-67
2022/07/24 06:36:41;;;;;;;16.70;12.40;;;;;;;26.48;45.01;101837.25;5029198;28;20033;-67
2022/07/24 06:39:07;;;;;;;14.73;11.15;;;;;;;26.61;44.68;101841.97;5029137;28;20436;-67
2022/07/24 06:41:32;;;;;;;13.63;10.82;;;;;;;26.70;44.56;101829.06;5028149;28;20701;-67
2022/07/24 06:43:59;;;;;;;18.45;12.13;;;;;;;26.82;44.64;101835.75;5023399;28;20049;-68
2022/07/24 06:46:25;;;;;;;14.90;11.40;;;;;;;26.94;44.27;101840.72;5027930;28;20029;-67
2022/07/24 06:48:50;;;;;;;15.95;11.13;;;;;;;27.00;43.92;101831.19;5014937;28;20041;-67
2022/07/24 06:51:17;;;;;;;18.52;12.45;;;;;;;27.08;43.75;101833.22;5023386;28;20117;-67
2022/07/24 06:53:45;;;;;;;13.95;11.23;;;;;;;27.12;43.91;101825.94;5018563;28;20119;-67
2022/07/24 06:56:10;;;;;;;15.60;11.45;;;;;;;27.05;43.94;101825.53;5027127;28;20044;-67
2022/07/24 06:58:35;;;;;;;17.40;10.18;;;;;;;27.21;43.44;101826.81;4999315;28;20026;-68
2022/07/24 07:01:01;;;;;;;14.25;10.20;;;;;;;27.22;43.44;101822.13;5023891;28;20042;-67
2022/07/24 07:03:26;;;;;;;12.82;9.85;;;;;;;27.28;42.99;101827.19;5018607;28;20029;-67
2022/07/24 07:05:51;;;;;;;13.45;9.40;;;;;;;27.51;42.81;101820.59;5028537;28;20520;-69
2022/07/24 07:08:17;;;;;;;14.98;9.82;;;;;;;27.55;42.67;101821.59;5024669;28;20042;-69
2022/07/24 07:10:42;;;;;;;12.52;9.82;;;;;;;27.74;42.31;101821.38;5025734;28;20041;-71
2022/07/24 07:13:08;;;;;;;11.70;9.80;;;;;;;27.68;42.33;101823.44;5025545;28;20018;-66
2022/07/24 07:15:33;;;;;;;11.80;8.10;;;;;;;27.91;41.65;101818.69;5036801;28;20268;-68
2022/07/24 07:17:59;;;;;;;8.57;6.55;;;;;;;28.07;40.77;101819.94;5037922;28;20093;-68
2022/07/24 07:20:24;;;;;;;7.40;6.53;;;;;;;28.00;40.09;101821.53;5028798;28;20513;-68
2022/07/24 07:22:49;;;;;;;11.65;4.68;;;;;;;27.80;38.67;101829.22;5029150;28;20049;-67
2022/07/24 07:25:15;;;;;;;3.95;3.28;;;;;;;27.55;38.82;101829.88;5047824;28;20047;-69
2022/07/24 07:27:40;;;;;;;3.85;3.15;;;;;;;27.62;38.38;101833.00;5048746;28;20041;-69
2022/07/24 07:30:07;;;;;;;11.27;3.10;;;;;;;27.76;38.38;101836.50;5049139;28;20408;-67
2022/07/24 07:32:33;;;;;;;5.00;3.47;;;;;;;28.05;37.61;101838.78;5047203;28;20060;-68
2022/07/24 07:34:58;;;;;;;3.80;3.10;;;;;;;28.08;37.48;101843.69;5048228;28;20037;-69
2022/07/24 07:37:24;;;;;;;4.13;3.17;;;;;;;27.73;37.78;101847.38;5040018;28;20034;-67
2022/07/24 07:39:49;;;;;;;3.45;2.70;;;;;;;27.78;37.17;101844.47;5028239;28;20511;-67
2022/07/24 07:42:14;;;;;;;10.30;2.63;;;;;;;27.95;36.52;101839.06;5033097;28;20500;-68
2022/07/24 07:44:40;;;;;;;5.68;2.40;;;;;;;27.53;36.57;101843.19;5028584;28;20413;-67
2022/07/24 07:47:05;;;;;;;2.63;2.30;;;;;;;27.73;36.55;101836.31;5028683;28;20048;-70
2022/07/24 07:49:31;;;;;;;3.10;2.13;;;;;;;27.86;36.15;101837.34;5038523;28;20040;-70
2022/07/24 07:51:56;;;;;;;2.50;2.30;;;;;;;28.57;35.23;101840.66;5039243;28;20028;-69
2022/07/24 07:54:21;;;;;;;2.30;1.75;;;;;;;28.55;35.61;101834.63;5028534;28;20700;-71
2022/07/24 07:56:47;;;;;;;3.20;2.30;;;;;;;29.12;34.98;101829.00;5034951;28;20372;-71
2022/07/24 07:59:12;;;;;;;7.13;2.30;;;;;;;28.10;36.14;101837.84;5039896;28;20672;-69
2022/07/24 08:01:38;;;;;;;4.93;2.45;;;;;;;28.51;35.00;101827.25;5034946;28;20515;-71
2022/07/24 08:04:03;;;;;;;4.45;2.50;;;;;;;28.51;35.37;101828.06;5019466;28;20113;-69
2022/07/24 08:06:30;;;;;;;2.20;1.92;;;;;;;28.93;35.16;101817.44;5043612;28;20041;-70
2022/07/24 08:08:55;;;;;;;2.55;2.05;;;;;;;28.73;34.38;101831.88;5044732;28;20052;-69
2022/07/24 08:11:21;;;;;;;2.40;1.90;;;;;;;28.47;34.99;101832.63;5030693;28;20045;-65
2022/07/24 08:13:46;;;;;;;4.72;2.13;;;;;;;28.79;34.63;101833.38;5025715;28;20048;-67
2022/07/24 08:16:12;;;;;;;4.28;2.35;;;;;;;29.10;34.71;101831.28;5025766;28;20661;-67
2022/07/24 08:18:37;;;;;;;2.55;2.00;;;;;;;28.74;34.73;101825.22;5025366;28;20034;-67
2022/07/24 08:21:03;;;;;;;2.80;2.00;;;;;;;28.69;35.31;101819.84;5025778;28;20422;-67
2022/07/24 08:23:28;;;;;;;2.38;1.73;;;;;;;29.20;33.98;101814.38;5024502;28;20087;-68
2022/07/24 08:25:54;;;;;;;2.70;1.98;;;;;;;29.26;33.93;101816.66;5025727;28;20140;-67
2022/07/24 08:28:21;;;;;;;2.20;1.95;;;;;;;29.41;33.45;101818.91;5026290;28;20044;-66
2022/07/24 08:30:46;;;;;;;2.28;1.55;;;;;;;29.58;33.28;101818.06;5007267;28;20033;-68
2022/07/24 08:33:12;;;;;;;2.95;1.67;;;;;;;29.71;33.08;101813.47;5025381;28;20528;-67
2022/07/24 08:35:37;;;;;;;2.65;1.80;;;;;;;29.80;32.88;101819.84;5025264;28;20041;-68
2022/07/24 08:38:03;;;;;;;2.40;1.50;;;;;;;29.73;33.03;101825.06;5024850;28;20030;-67
2022/07/24 08:40:34;;;;;;;2.67;1.77;;;;;;;29.36;33.68;101823.81;5025431;28;20037;-66
2022/07/24 08:43:00;;;;;;;2.53;1.88;;;;;;;30.02;32.51;101811.28;5029832;28;20071;-68
2022/07/24 08:45:26;;;;;;;2.78;0.98;;;;;;;29.76;32.89;101814.13;5027208;28;20064;-69
2022/07/24 08:47:52;;;;;;;3.17;1.60;;;;;;;30.10;32.20;101807.66;5032090;28;20139;-68
2022/07/24 08:50:18;;;;;;;1.58;1.35;;;;;;;30.86;31.21;101802.84;5033613;28;20559;-67
2022/07/24 08:52:43;;;;;;;2.10;1.42;;;;;;;29.85;32.67;101806.63;5033798;28;20118;-68
2022/07/24 08:55:09;;;;;;;2.70;1.35;;;;;;;30.74;31.27;101811.88;5038414;28;20041;-67
2022/07/24 08:57:34;;;;;;;5.57;1.45;;;;;;;30.56;31.36;101817.88;5032363;28;20049;-69
2022/07/24 08:59:59;;;;;;;1.95;1.50;;;;;;;30.10;32.39;101807.66;5034951;28;20107;-69
2022/07/24 09:02:27;;;;;;;2.67;1.60;;;;;;;30.49;31.43;101806.50;5033343;28;20052;-67
2022/07/24 09:04:58;;;;;;;1.73;1.42;;;;;;;30.37;32.14;101804.44;5035718;28;20041;-69
2022/07/24 09:07:28;;;;;;;3.33;1.88;;;;;;;30.30;31.87;101804.97;5033674;28;20040;-69
2022/07/24 09:09:59;;;;;;;2.70;1.27;;;;;;;31.23;30.54;101801.06;5028789;28;20179;-68
2022/07/24 09:12:25;;;;;;;2.33;1.80;;;;;;;30.79;31.25;101808.09;5032595;28;20036;-68
2022/07/24 09:14:50;;;;;;;2.45;1.48;;;;;;;31.01;30.57;101805.84;5037113;28;20032;-67
2022/07/24 09:17:20;;;;;;;1.98;1.63;;;;;;;31.18;30.60;101794.56;5031101;28;20037;-67
2022/07/24 09:19:59;;;;;;;2.17;1.65;;;;;;;31.69;29.33;101803.53;5038910;28;20041;-68
2022/07/24 09:22:30;;;;;;;3.92;1.92;;;;;;;31.55;29.64;101794.72;5033986;28;20413;-68
2022/07/24 09:25:05;;;;;;;1.95;1.60;;;;;;;30.82;30.98;101791.56;5032742;28;20061;-67
2022/07/24 09:27:30;;;;;;;3.58;1.58;;;;;;;31.48;29.57;101788.91;5033642;28;20064;-70
2022/07/24 09:29:57;;;;;;;1.75;1.45;;;;;;;31.34;29.92;101775.28;5035043;28;20049;-69
2022/07/24 09:32:23;;;;;;;4.85;1.60;;;;;;;31.77;29.01;101775.66;5010080;28;20489;-67
2022/07/24 09:34:51;;;;;;;2.92;1.50;;;;;;;31.94;28.96;101783.81;5032767;28;20045;-70
2022/07/24 09:37:17;;;;;;;1.80;1.48;;;;;;;31.57;29.68;101796.00;5032446;28;20016;-69
2022/07/24 09:39:43;;;;;;;2.42;1.60;;;;;;;31.63;28.48;101789.06;5035802;28;20399;-68
2022/07/24 09:42:09;;;;;;;2.78;1.58;;;;;;;32.04;28.66;101790.09;5031522;28;20064;-69
2022/07/24 09:44:35;;;;;;;4.05;2.30;;;;;;;32.14;28.59;101789.63;5028944;28;20120;-70
2022/07/24 09:47:03;;;;;;;2.17;1.58;;;;;;;32.23;28.19;101782.78;5030384;28;20742;-69
2022/07/24 09:49:30;;;;;;;2.60;1.85;;;;;;;32.27;28.37;101778.16;5031497;28;20025;-69
2022/07/24 09:52:07;;;;;;;2.10;1.70;;;;;;;32.36;27.33;101789.97;5028455;28;20932;-72
2022/07/24 09:54:34;;;;;;;1.70;1.23;;;;;;;32.32;28.08;101785.44;5031664;28;20045;-70
2022/07/24 09:57:24;;;;;;;2.22;1.60;;;;;;;32.97;27.48;101787.09;5025841;28;20049;-71
2022/07/24 10:00:00;;;;;;;2.20;1.73;;;;;;;32.42;28.19;101790.53;5031044;28;20088;-70
2022/07/24 10:02:28;;;;;;;4.43;1.85;;;;;;;32.44;29.22;101786.28;5026966;28;20421;-71
2022/07/24 10:04:54;;;;;;;2.10;1.33;;;;;;;32.34;28.07;101789.50;5009023;28;20033;-71
2022/07/24 10:07:23;;;;;;;2.15;1.90;;;;;;;32.56;27.19;101785.44;5029815;28;20045;-70
2022/07/24 10:09:51;;;;;;;3.17;1.75;;;;;;;33.02;27.07;101781.28;5028288;28;20040;-69
2022/07/24 10:12:19;;;;;;;4.05;1.67;;;;;;;32.23;28.30;101782.78;5027823;28;20025;-70
2022/07/24 10:14:46;;;;;;;3.17;1.75;;;;;;;33.04;27.32;101776.19;5027093;28;20075;-71
2022/07/24 10:17:13;;;;;;;3.17;2.00;;;;;;;32.89;26.62;101766.56;5028849;28;20029;-71
2022/07/24 10:19:50;;;;;;;4.80;1.80;;;;;;;32.18;27.73;101769.09;5028854;28;20041;-70
2022/07/24 10:22:23;;;;;;;2.20;1.65;;;;;;;32.60;27.44;101778.00;5029556;28;20030;-70
2022/07/24 10:25:08;;;;;;;11.68;1.95;;;;;;;32.70;27.11;101774.75;5031339;28;20124;-70
2022/07/24 10:27:36;;;;;;;3.10;2.00;;;;;;;32.88;26.97;101769.72;5027747;28;20045;-70
2022/07/24 10:30:10;;;;;;;2.88;1.88;;;;;;;33.68;25.84;101763.66;5033063;28;20068;-70
2022/07/24 10:32:37;;;;;;;3.65;1.67;;;;;;;33.85;26.52;101765.28;5023472;28;20045;-69
2022/07/24 10:35:16;;;;;;;2.45;1.83;;;;;;;33.53;26.26;101772.03;5023861;28;20548;-70
2022/07/24 10:38:14;;;;;;;4.20;2.10;;;;;;;32.86;26.03;101759.72;5022917;28;20663;-68
2022/07/24 10:40:45;;;;;;;2.92;1.70;;;;;;;32.86;26.49;101765.28;4944215;29;20058;-68
2022/07/24 10:43:12;;;;;;;3.13;1.85;;;;;;;33.62;26.05;101765.09;4944649;29;20110;-68
2022/07/24 10:45:45;;;;;;;3.28;1.50;;;;;;;33.52;26.74;101757.25;4942459;29;20103;-70
2022/07/24 10:48:19;;;;;;;2.28;1.75;;;;;;;34.19;26.99;101758.97;4943020;29;20420;-68
2022/07/24 10:50:57;;;;;;;3.63;1.98;;;;;;;35.11;25.80;101753.47;4941911;28;20850;-69
2022/07/24 10:53:49;;;;;;;6.38;1.92;;;;;;;34.68;25.96;101759.31;4942882;29;20419;-69
2022/07/24 10:56:38;;;;;;;3.25;2.15;;;;;;;34.47;25.65;101748.50;4886616;29;20041;-69
2022/07/24 10:59:09;;;;;;;2.30;1.48;;;;;;;34.66;23.71;101767.25;4848254;29;20110;-70
2022/07/24 11:01:47;;;;;;;3.72;2.00;;;;;;;34.51;24.20;101756.97;4849157;29;20045;-72
2022/07/24 11:04:19;;;;;;;2.65;1.40;;;;;;;33.74;25.08;101761.41;4848362;29;20044;-69
2022/07/24 11:06:46;;;;;;;2.40;1.90;;;;;;;34.42;24.43;101753.53;4848617;29;20052;-68
2022/07/24 11:09:13;;;;;;;2.83;1.80;;;;;;;34.11;24.66;101748.00;4848683;29;20041;-69
2022/07/24 11:12:01;;;;;;;2.40;1.50;;;;;;;34.18;24.38;101760.16;4835687;29;20045;-71
2022/07/24 11:14:47;;;;;;;4.40;2.08;;;;;;;33.77;24.88;101740.38;4847104;29;20045;-69
2022/07/24 11:17:38;;;;;;;1.50;1.27;;;;;;;34.05;24.64;101741.09;4880110;29;21082;-70
2022/07/24 11:20:06;;;;;;;1.55;1.38;;;;;;;34.03;24.88;101744.25;4904857;29;20139;-69